sensor_id;sensor_type;location;lat;lon;timestamp;P1;durP1;ratioP1;P2;durP2;ratioP2
77168;SDS011;66281;45.114;20.730;2023-02-23T00:09:08;128.27;;;39.77;;
77168;SDS011;66281;45.114;20.730;2023-02-23T00:19:09;78.28;;;28.77;;
77168;SDS011;66281;45.114;20.730;2023-02-23T00:29:14;93.07;;;29.33;;
77168;SDS011;66281;45.114;20.730;2023-02-23T00:39:15;32.73;;;14.97;;
77168;SDS011;66281;45.114;20.730;2023-02-23T00:49:16;22.87;;;11.60;;
77168;SDS011;66281;45.114;20.730;2023-02-23T00:59:18;35.88;;;14.05;;
77168;SDS011;66281;45.114;20.730;2023-02-23T01:09:18;91.50;;;26.73;;
77168;SDS011;66281;45.114;20.730;2023-02-23T01:19:21;37.60;;;16.37;;
77168;SDS011;66281;45.114;20.730;2023-02-23T01:29:22;56.87;;;22.07;;
77168;SDS011;66281;45.114;20.730;2023-02-23T01:39:24;63.50;;;25.48;;
77168;SDS011;66281;45.114;20.730;2023-02-23T01:49:28;30.50;;;16.10;;
77168;SDS011;66281;45.114;20.730;2023-02-23T01:59:31;26.30;;;15.15;;
77168;SDS011;66281;45.114;20.730;2023-02-23T02:09:37;44.83;;;20.33;;
77168;SDS011;66281;45.114;20.730;2023-02-23T03:00:50;43.93;;;22.30;;
77168;SDS011;66281;45.114;20.730;2023-02-23T03:10:54;60.63;;;26.53;;
77168;SDS011;66281;45.114;20.730;2023-02-23T03:21:00;45.53;;;23.90;;
77168;SDS011;66281;45.114;20.730;2023-02-23T03:41:25;35.33;;;20.45;;
77168;SDS011;66281;45.114;20.730;2023-02-23T03:51:28;39.57;;;21.07;;
77168;SDS011;66281;45.114;20.730;2023-02-23T04:01:31;36.17;;;20.40;;
77168;SDS011;66281;45.114;20.730;2023-02-23T04:21:51;38.38;;;21.23;;
77168;SDS011;66281;45.114;20.730;2023-02-23T04:31:51;34.60;;;19.07;;
77168;SDS011;66281;45.114;20.730;2023-02-23T04:41:52;38.85;;;18.95;;
77168;SDS011;66281;45.114;20.730;2023-02-23T04:51:52;27.90;;;17.77;;
77168;SDS011;66281;45.114;20.730;2023-02-23T05:01:53;31.13;;;16.50;;
77168;SDS011;66281;45.114;20.730;2023-02-23T05:11:53;29.27;;;16.08;;
77168;SDS011;66281;45.114;20.730;2023-02-23T05:21:54;55.97;;;26.47;;
77168;SDS011;66281;45.114;20.730;2023-02-23T05:31:54;66.63;;;32.95;;
77168;SDS011;66281;45.114;20.730;2023-02-23T05:41:56;65.78;;;30.98;;
77168;SDS011;66281;45.114;20.730;2023-02-23T05:51:56;86.03;;;36.37;;
77168;SDS011;66281;45.114;20.730;2023-02-23T06:01:57;49.95;;;23.80;;
77168;SDS011;66281;45.114;20.730;2023-02-23T06:11:57;51.27;;;25.10;;
77168;SDS011;66281;45.114;20.730;2023-02-23T06:21:58;77.30;;;34.83;;
77168;SDS011;66281;45.114;20.730;2023-02-23T06:31:58;66.33;;;32.53;;
77168;SDS011;66281;45.114;20.730;2023-02-23T06:41:59;80.50;;;38.67;;
77168;SDS011;66281;45.114;20.730;2023-02-23T06:51:59;45.95;;;21.23;;
77168;SDS011;66281;45.114;20.730;2023-02-23T07:02:00;34.08;;;21.02;;
77168;SDS011;66281;45.114;20.730;2023-02-23T07:12:00;35.72;;;23.73;;
77168;SDS011;66281;45.114;20.730;2023-02-23T07:22:01;32.67;;;24.90;;
77168;SDS011;66281;45.114;20.730;2023-02-23T07:32:01;24.50;;;18.27;;
77168;SDS011;66281;45.114;20.730;2023-02-23T07:42:03;11.10;;;9.80;;
77168;SDS011;66281;45.114;20.730;2023-02-23T07:52:03;18.33;;;13.77;;
77168;SDS011;66281;45.114;20.730;2023-02-23T08:02:04;12.43;;;10.20;;
77168;SDS011;66281;45.114;20.730;2023-02-23T08:12:04;24.45;;;10.70;;
77168;SDS011;66281;45.114;20.730;2023-02-23T08:22:06;15.20;;;9.77;;
77168;SDS011;66281;45.114;20.730;2023-02-23T08:32:07;13.07;;;9.87;;
77168;SDS011;66281;45.114;20.730;2023-02-23T08:42:07;13.68;;;9.80;;
77168;SDS011;66281;45.114;20.730;2023-02-23T08:52:08;14.53;;;9.70;;
77168;SDS011;66281;45.114;20.730;2023-02-23T09:02:10;14.50;;;9.55;;
77168;SDS011;66281;45.114;20.730;2023-02-23T09:12:11;15.60;;;9.70;;
77168;SDS011;66281;45.114;20.730;2023-02-23T09:22:12;12.63;;;9.35;;
77168;SDS011;66281;45.114;20.730;2023-02-23T09:32:14;14.10;;;9.50;;
77168;SDS011;66281;45.114;20.730;2023-02-23T09:42:35;14.80;;;8.65;;
77168;SDS011;66281;45.114;20.730;2023-02-23T09:52:41;12.13;;;7.53;;
77168;SDS011;66281;45.114;20.730;2023-02-23T10:03:27;8.50;;;6.57;;
77168;SDS011;66281;45.114;20.730;2023-02-23T10:13:43;10.15;;;7.18;;
77168;SDS011;66281;45.114;20.730;2023-02-23T10:23:56;15.73;;;7.73;;
77168;SDS011;66281;45.114;20.730;2023-02-23T10:33:58;9.77;;;5.90;;
77168;SDS011;66281;45.114;20.730;2023-02-23T10:44:03;8.20;;;5.73;;
77168;SDS011;66281;45.114;20.730;2023-02-23T11:04:34;11.07;;;8.00;;
77168;SDS011;66281;45.114;20.730;2023-02-23T11:14:35;10.03;;;6.37;;
77168;SDS011;66281;45.114;20.730;2023-02-23T11:24:36;12.70;;;6.95;;
77168;SDS011;66281;45.114;20.730;2023-02-23T11:34:38;8.93;;;6.22;;
77168;SDS011;66281;45.114;20.730;2023-02-23T11:44:39;9.23;;;6.40;;
77168;SDS011;66281;45.114;20.730;2023-02-23T11:54:40;15.13;;;7.50;;
77168;SDS011;66281;45.114;20.730;2023-02-23T12:15:14;14.45;;;7.03;;
77168;SDS011;66281;45.114;20.730;2023-02-23T12:25:26;12.87;;;7.67;;
77168;SDS011;66281;45.114;20.730;2023-02-23T12:45:51;19.17;;;7.45;;
77168;SDS011;66281;45.114;20.730;2023-02-23T13:16:53;15.97;;;8.93;;
77168;SDS011;66281;45.114;20.730;2023-02-23T13:27:00;16.47;;;8.07;;
77168;SDS011;66281;45.114;20.730;2023-02-23T13:37:05;20.63;;;7.30;;
77168;SDS011;66281;45.114;20.730;2023-02-23T13:47:20;15.13;;;7.30;;
77168;SDS011;66281;45.114;20.730;2023-02-23T13:57:26;19.73;;;7.47;;
77168;SDS011;66281;45.114;20.730;2023-02-23T14:07:28;21.03;;;9.53;;
77168;SDS011;66281;45.114;20.730;2023-02-23T14:27:41;13.38;;;6.45;;
77168;SDS011;66281;45.114;20.730;2023-02-23T14:37:48;23.30;;;11.87;;
77168;SDS011;66281;45.114;20.730;2023-02-23T14:47:55;26.33;;;14.90;;
77168;SDS011;66281;45.114;20.730;2023-02-23T14:57:57;25.83;;;10.50;;
77168;SDS011;66281;45.114;20.730;2023-02-23T15:07:59;15.00;;;8.13;;
77168;SDS011;66281;45.114;20.730;2023-02-23T15:18:01;36.20;;;15.37;;
77168;SDS011;66281;45.114;20.730;2023-02-23T15:38:27;28.57;;;16.83;;
77168;SDS011;66281;45.114;20.730;2023-02-23T15:58:38;25.05;;;15.52;;
77168;SDS011;66281;45.114;20.730;2023-02-23T16:08:46;63.07;;;28.20;;
77168;SDS011;66281;45.114;20.730;2023-02-23T16:18:59;58.80;;;29.50;;
77168;SDS011;66281;45.114;20.730;2023-02-23T16:29:00;36.17;;;19.30;;
77168;SDS011;66281;45.114;20.730;2023-02-23T16:39:08;32.23;;;16.87;;
77168;SDS011;66281;45.114;20.730;2023-02-23T16:49:10;33.33;;;15.60;;
77168;SDS011;66281;45.114;20.730;2023-02-23T16:59:13;76.90;;;32.80;;
77168;SDS011;66281;45.114;20.730;2023-02-23T17:09:15;29.90;;;15.57;;
77168;SDS011;66281;45.114;20.730;2023-02-23T17:19:16;28.50;;;16.73;;
77168;SDS011;66281;45.114;20.730;2023-02-23T17:29:17;24.77;;;14.07;;
77168;SDS011;66281;45.114;20.730;2023-02-23T17:39:18;56.75;;;29.00;;
77168;SDS011;66281;45.114;20.730;2023-02-23T17:49:18;29.23;;;16.60;;
77168;SDS011;66281;45.114;20.730;2023-02-23T17:59:19;28.63;;;14.68;;
77168;SDS011;66281;45.114;20.730;2023-02-23T18:09:19;23.90;;;13.73;;
77168;SDS011;66281;45.114;20.730;2023-02-23T18:19:20;49.53;;;24.58;;
77168;SDS011;66281;45.114;20.730;2023-02-23T18:29:21;36.65;;;18.90;;
77168;SDS011;66281;45.114;20.730;2023-02-23T18:39:22;30.43;;;14.60;;
77168;SDS011;66281;45.114;20.730;2023-02-23T18:49:23;29.25;;;12.00;;
77168;SDS011;66281;45.114;20.730;2023-02-23T18:59:24;30.77;;;14.10;;
77168;SDS011;66281;45.114;20.730;2023-02-23T19:09:24;34.33;;;17.67;;
77168;SDS011;66281;45.114;20.730;2023-02-23T19:19:24;33.00;;;15.20;;
77168;SDS011;66281;45.114;20.730;2023-02-23T19:29:25;29.25;;;14.10;;
77168;SDS011;66281;45.114;20.730;2023-02-23T19:39:25;24.87;;;12.43;;
77168;SDS011;66281;45.114;20.730;2023-02-23T19:49:26;23.85;;;13.45;;
77168;SDS011;66281;45.114;20.730;2023-02-23T19:59:26;30.00;;;15.90;;
77168;SDS011;66281;45.114;20.730;2023-02-23T20:09:27;21.23;;;12.00;;
77168;SDS011;66281;45.114;20.730;2023-02-23T20:19:27;20.98;;;12.23;;
77168;SDS011;66281;45.114;20.730;2023-02-23T20:29:28;17.67;;;9.60;;
77168;SDS011;66281;45.114;20.730;2023-02-23T20:39:29;25.17;;;12.93;;
77168;SDS011;66281;45.114;20.730;2023-02-23T20:49:30;22.57;;;11.20;;
77168;SDS011;66281;45.114;20.730;2023-02-23T20:59:30;21.93;;;12.33;;
77168;SDS011;66281;45.114;20.730;2023-02-23T21:09:31;25.25;;;13.32;;
77168;SDS011;66281;45.114;20.730;2023-02-23T21:19:31;23.23;;;12.80;;
77168;SDS011;66281;45.114;20.730;2023-02-23T21:29:33;22.23;;;12.47;;
77168;SDS011;66281;45.114;20.730;2023-02-23T21:39:34;21.67;;;11.47;;
77168;SDS011;66281;45.114;20.730;2023-02-23T21:49:36;19.10;;;10.85;;
77168;SDS011;66281;45.114;20.730;2023-02-23T21:59:36;21.17;;;12.60;;
77168;SDS011;66281;45.114;20.730;2023-02-23T22:09:37;19.67;;;11.93;;
77168;SDS011;66281;45.114;20.730;2023-02-23T22:19:37;19.50;;;11.33;;
77168;SDS011;66281;45.114;20.730;2023-02-23T22:29:39;22.45;;;11.63;;
77168;SDS011;66281;45.114;20.730;2023-02-23T22:39:40;21.23;;;11.23;;
77168;SDS011;66281;45.114;20.730;2023-02-23T22:49:41;18.08;;;10.80;;
77168;SDS011;66281;45.114;20.730;2023-02-23T22:59:41;17.40;;;10.10;;
77168;SDS011;66281;45.114;20.730;2023-02-23T23:09:42;20.00;;;11.35;;
77168;SDS011;66281;45.114;20.730;2023-02-23T23:19:42;21.52;;;12.38;;
77168;SDS011;66281;45.114;20.730;2023-02-23T23:29:43;18.17;;;10.47;;
77168;SDS011;66281;45.114;20.730;2023-02-23T23:39:44;21.77;;;10.10;;
77168;SDS011;66281;45.114;20.730;2023-02-23T23:49:44;18.83;;;10.68;;
77168;SDS011;66281;45.114;20.730;2023-02-23T23:59:45;17.80;;;10.67;;
